sensor_id;sensor_type;location;lat;lon;timestamp;P1;durP1;ratioP1;P2;durP2;ratioP2
68216;SDS011;55037;52.354;4.992;2024-03-22T00:01:46;22.65;;;11.18;;
68216;SDS011;55037;52.354;4.992;2024-03-22T00:04:13;26.40;;;12.13;;
68216;SDS011;55037;52.354;4.992;2024-03-22T00:06:41;29.92;;;14.00;;
68216;SDS011;55037;52.354;4.992;2024-03-22T00:09:08;25.42;;;13.68;;
68216;SDS011;55037;52.354;4.992;2024-03-22T00:11:34;22.33;;;10.83;;
68216;SDS011;55037;52.354;4.992;2024-03-22T00:14:01;24.70;;;11.45;;
68216;SDS011;55037;52.354;4.992;2024-03-22T00:16:28;25.65;;;13.40;;
68216;SDS011;55037;52.354;4.992;2024-03-22T00:18:55;39.30;;;14.77;;
68216;SDS011;55037;52.354;4.992;2024-03-22T00:21:22;34.28;;;15.18;;
68216;SDS011;55037;52.354;4.992;2024-03-22T00:23:49;27.83;;;12.70;;
68216;SDS011;55037;52.354;4.992;2024-03-22T00:26:15;22.85;;;11.23;;
68216;SDS011;55037;52.354;4.992;2024-03-22T00:28:42;28.60;;;14.52;;
68216;SDS011;55037;52.354;4.992;2024-03-22T00:31:09;26.58;;;11.38;;
68216;SDS011;55037;52.354;4.992;2024-03-22T00:33:36;30.40;;;12.15;;
68216;SDS011;55037;52.354;4.992;2024-03-22T00:36:02;29.50;;;14.00;;
68216;SDS011;55037;52.354;4.992;2024-03-22T00:38:29;26.90;;;12.40;;
68216;SDS011;55037;52.354;4.992;2024-03-22T00:40:55;23.98;;;10.52;;
68216;SDS011;55037;52.354;4.992;2024-03-22T00:43:22;26.38;;;12.35;;
68216;SDS011;55037;52.354;4.992;2024-03-22T00:45:49;28.10;;;12.18;;
68216;SDS011;55037;52.354;4.992;2024-03-22T00:48:15;33.13;;;14.30;;
68216;SDS011;55037;52.354;4.992;2024-03-22T00:50:42;30.00;;;13.13;;
68216;SDS011;55037;52.354;4.992;2024-03-22T00:53:09;20.55;;;9.93;;
68216;SDS011;55037;52.354;4.992;2024-03-22T00:55:35;30.27;;;13.43;;
68216;SDS011;55037;52.354;4.992;2024-03-22T00:58:02;29.67;;;12.10;;
68216;SDS011;55037;52.354;4.992;2024-03-22T01:00:29;35.70;;;14.67;;
68216;SDS011;55037;52.354;4.992;2024-03-22T01:02:55;25.92;;;11.98;;
68216;SDS011;55037;52.354;4.992;2024-03-22T01:05:22;27.58;;;11.43;;
68216;SDS011;55037;52.354;4.992;2024-03-22T01:07:49;24.70;;;10.77;;
68216;SDS011;55037;52.354;4.992;2024-03-22T01:10:15;26.27;;;11.40;;
68216;SDS011;55037;52.354;4.992;2024-03-22T01:12:42;27.80;;;12.13;;
68216;SDS011;55037;52.354;4.992;2024-03-22T01:15:09;26.63;;;11.10;;
68216;SDS011;55037;52.354;4.992;2024-03-22T01:17:35;27.52;;;11.27;;
68216;SDS011;55037;52.354;4.992;2024-03-22T01:20:02;22.40;;;9.20;;
68216;SDS011;55037;52.354;4.992;2024-03-22T01:22:29;19.70;;;8.35;;
68216;SDS011;55037;52.354;4.992;2024-03-22T01:24:55;23.83;;;10.93;;
68216;SDS011;55037;52.354;4.992;2024-03-22T01:27:22;19.25;;;8.73;;
68216;SDS011;55037;52.354;4.992;2024-03-22T01:29:48;29.25;;;12.40;;
68216;SDS011;55037;52.354;4.992;2024-03-22T01:32:15;31.55;;;10.55;;
68216;SDS011;55037;52.354;4.992;2024-03-22T01:34:42;20.15;;;9.27;;
68216;SDS011;55037;52.354;4.992;2024-03-22T01:37:08;29.27;;;12.63;;
68216;SDS011;55037;52.354;4.992;2024-03-22T01:39:35;22.52;;;9.70;;
68216;SDS011;55037;52.354;4.992;2024-03-22T01:42:02;24.98;;;10.65;;
68216;SDS011;55037;52.354;4.992;2024-03-22T01:44:29;25.83;;;10.88;;
68216;SDS011;55037;52.354;4.992;2024-03-22T01:46:55;21.90;;;10.20;;
68216;SDS011;55037;52.354;4.992;2024-03-22T01:49:22;22.20;;;10.03;;
68216;SDS011;55037;52.354;4.992;2024-03-22T01:51:51;24.58;;;9.70;;
68216;SDS011;55037;52.354;4.992;2024-03-22T01:54:17;25.73;;;11.52;;
68216;SDS011;55037;52.354;4.992;2024-03-22T01:56:45;20.20;;;7.93;;
68216;SDS011;55037;52.354;4.992;2024-03-22T01:59:13;27.35;;;9.52;;
68216;SDS011;55037;52.354;4.992;2024-03-22T02:01:39;29.53;;;10.43;;
68216;SDS011;55037;52.354;4.992;2024-03-22T02:04:06;25.83;;;10.00;;
68216;SDS011;55037;52.354;4.992;2024-03-22T02:06:33;28.60;;;10.68;;
68216;SDS011;55037;52.354;4.992;2024-03-22T02:09:00;17.70;;;7.57;;
68216;SDS011;55037;52.354;4.992;2024-03-22T02:11:27;22.17;;;9.70;;
68216;SDS011;55037;52.354;4.992;2024-03-22T02:13:54;13.70;;;6.47;;
68216;SDS011;55037;52.354;4.992;2024-03-22T02:16:20;20.52;;;8.98;;
68216;SDS011;55037;52.354;4.992;2024-03-22T02:18:47;31.50;;;11.30;;
68216;SDS011;55037;52.354;4.992;2024-03-22T02:21:14;15.35;;;6.63;;
68216;SDS011;55037;52.354;4.992;2024-03-22T02:23:41;19.05;;;9.15;;
68216;SDS011;55037;52.354;4.992;2024-03-22T02:26:08;25.47;;;10.27;;
68216;SDS011;55037;52.354;4.992;2024-03-22T02:28:35;28.67;;;12.30;;
68216;SDS011;55037;52.354;4.992;2024-03-22T02:31:02;19.10;;;8.73;;
68216;SDS011;55037;52.354;4.992;2024-03-22T02:33:29;18.67;;;7.95;;
68216;SDS011;55037;52.354;4.992;2024-03-22T02:35:56;15.90;;;7.93;;
68216;SDS011;55037;52.354;4.992;2024-03-22T02:38:23;13.63;;;6.70;;
68216;SDS011;55037;52.354;4.992;2024-03-22T02:40:50;15.80;;;8.75;;
68216;SDS011;55037;52.354;4.992;2024-03-22T02:43:17;13.55;;;6.50;;
68216;SDS011;55037;52.354;4.992;2024-03-22T02:45:44;24.15;;;10.43;;
68216;SDS011;55037;52.354;4.992;2024-03-22T02:48:11;20.10;;;7.97;;
68216;SDS011;55037;52.354;4.992;2024-03-22T02:50:38;20.30;;;8.23;;
68216;SDS011;55037;52.354;4.992;2024-03-22T02:53:05;20.70;;;9.32;;
68216;SDS011;55037;52.354;4.992;2024-03-22T02:55:38;18.70;;;8.75;;
68216;SDS011;55037;52.354;4.992;2024-03-22T02:58:06;23.95;;;8.88;;
68216;SDS011;55037;52.354;4.992;2024-03-22T03:00:39;21.42;;;9.98;;
68216;SDS011;55037;52.354;4.992;2024-03-22T03:03:06;24.23;;;10.03;;
68216;SDS011;55037;52.354;4.992;2024-03-22T03:05:32;21.90;;;9.30;;
68216;SDS011;55037;52.354;4.992;2024-03-22T03:08:00;15.90;;;8.75;;
68216;SDS011;55037;52.354;4.992;2024-03-22T03:10:27;20.65;;;9.35;;
68216;SDS011;55037;52.354;4.992;2024-03-22T03:12:54;19.05;;;8.98;;
68216;SDS011;55037;52.354;4.992;2024-03-22T03:15:20;26.77;;;8.50;;
68216;SDS011;55037;52.354;4.992;2024-03-22T03:17:47;13.57;;;7.28;;
68216;SDS011;55037;52.354;4.992;2024-03-22T03:20:14;14.48;;;7.78;;
68216;SDS011;55037;52.354;4.992;2024-03-22T03:22:41;15.70;;;7.47;;
68216;SDS011;55037;52.354;4.992;2024-03-22T03:25:07;14.55;;;7.63;;
68216;SDS011;55037;52.354;4.992;2024-03-22T03:27:34;10.97;;;7.67;;
68216;SDS011;55037;52.354;4.992;2024-03-22T03:30:01;14.27;;;7.32;;
68216;SDS011;55037;52.354;4.992;2024-03-22T03:32:27;15.63;;;8.02;;
68216;SDS011;55037;52.354;4.992;2024-03-22T03:34:54;19.48;;;8.38;;
68216;SDS011;55037;52.354;4.992;2024-03-22T03:37:21;17.50;;;8.15;;
68216;SDS011;55037;52.354;4.992;2024-03-22T03:39:47;21.13;;;11.13;;
68216;SDS011;55037;52.354;4.992;2024-03-22T03:42:14;16.63;;;9.20;;
68216;SDS011;55037;52.354;4.992;2024-03-22T03:44:41;20.50;;;8.63;;
68216;SDS011;55037;52.354;4.992;2024-03-22T03:47:07;16.42;;;8.23;;
68216;SDS011;55037;52.354;4.992;2024-03-22T03:49:34;13.32;;;7.55;;
68216;SDS011;55037;52.354;4.992;2024-03-22T03:52:01;16.83;;;8.10;;
68216;SDS011;55037;52.354;4.992;2024-03-22T03:54:28;13.55;;;7.30;;
68216;SDS011;55037;52.354;4.992;2024-03-22T03:56:54;20.15;;;7.70;;
68216;SDS011;55037;52.354;4.992;2024-03-22T03:59:21;11.75;;;6.05;;
68216;SDS011;55037;52.354;4.992;2024-03-22T04:01:47;12.70;;;7.25;;
68216;SDS011;55037;52.354;4.992;2024-03-22T04:04:14;13.80;;;7.50;;
68216;SDS011;55037;52.354;4.992;2024-03-22T04:06:41;22.15;;;8.93;;
68216;SDS011;55037;52.354;4.992;2024-03-22T04:09:07;27.42;;;7.90;;
68216;SDS011;55037;52.354;4.992;2024-03-22T04:11:34;15.45;;;6.80;;
68216;SDS011;55037;52.354;4.992;2024-03-22T04:14:01;16.25;;;6.63;;
68216;SDS011;55037;52.354;4.992;2024-03-22T04:16:27;16.40;;;7.53;;
68216;SDS011;55037;52.354;4.992;2024-03-22T04:18:54;21.33;;;8.23;;
68216;SDS011;55037;52.354;4.992;2024-03-22T04:21:20;18.25;;;7.53;;
68216;SDS011;55037;52.354;4.992;2024-03-22T04:23:47;12.35;;;5.95;;
68216;SDS011;55037;52.354;4.992;2024-03-22T04:26:14;12.95;;;7.05;;
68216;SDS011;55037;52.354;4.992;2024-03-22T04:28:41;13.27;;;6.93;;
68216;SDS011;55037;52.354;4.992;2024-03-22T04:31:08;18.95;;;6.53;;
68216;SDS011;55037;52.354;4.992;2024-03-22T04:33:35;11.85;;;5.70;;
68216;SDS011;55037;52.354;4.992;2024-03-22T04:36:03;14.73;;;7.55;;
68216;SDS011;55037;52.354;4.992;2024-03-22T04:38:30;16.05;;;6.82;;
68216;SDS011;55037;52.354;4.992;2024-03-22T04:40:57;13.73;;;6.50;;
68216;SDS011;55037;52.354;4.992;2024-03-22T04:43:24;14.00;;;7.38;;
68216;SDS011;55037;52.354;4.992;2024-03-22T04:45:51;18.98;;;7.63;;
68216;SDS011;55037;52.354;4.992;2024-03-22T04:48:18;15.75;;;7.10;;
68216;SDS011;55037;52.354;4.992;2024-03-22T04:50:45;18.48;;;6.53;;
68216;SDS011;55037;52.354;4.992;2024-03-22T04:53:13;22.07;;;8.70;;
68216;SDS011;55037;52.354;4.992;2024-03-22T04:55:40;17.65;;;6.85;;
68216;SDS011;55037;52.354;4.992;2024-03-22T04:58:13;16.27;;;7.72;;
68216;SDS011;55037;52.354;4.992;2024-03-22T05:00:41;12.98;;;6.05;;
68216;SDS011;55037;52.354;4.992;2024-03-22T05:03:07;19.98;;;6.78;;
68216;SDS011;55037;52.354;4.992;2024-03-22T05:05:34;15.43;;;5.60;;
68216;SDS011;55037;52.354;4.992;2024-03-22T05:08:01;14.88;;;5.22;;
68216;SDS011;55037;52.354;4.992;2024-03-22T05:10:29;8.57;;;4.25;;
68216;SDS011;55037;52.354;4.992;2024-03-22T05:12:55;10.15;;;4.57;;
68216;SDS011;55037;52.354;4.992;2024-03-22T05:15:22;11.27;;;4.95;;
68216;SDS011;55037;52.354;4.992;2024-03-22T05:17:51;14.10;;;4.73;;
68216;SDS011;55037;52.354;4.992;2024-03-22T05:20:18;13.48;;;4.80;;
68216;SDS011;55037;52.354;4.992;2024-03-22T05:22:45;14.13;;;4.40;;
68216;SDS011;55037;52.354;4.992;2024-03-22T05:25:11;7.15;;;3.88;;
68216;SDS011;55037;52.354;4.992;2024-03-22T05:27:40;6.80;;;3.28;;
68216;SDS011;55037;52.354;4.992;2024-03-22T05:30:08;7.57;;;3.47;;
68216;SDS011;55037;52.354;4.992;2024-03-22T05:32:35;8.38;;;3.90;;
68216;SDS011;55037;52.354;4.992;2024-03-22T05:35:02;9.15;;;3.75;;
68216;SDS011;55037;52.354;4.992;2024-03-22T05:37:28;7.15;;;3.72;;
68216;SDS011;55037;52.354;4.992;2024-03-22T05:39:55;7.55;;;3.33;;
68216;SDS011;55037;52.354;4.992;2024-03-22T05:42:22;11.00;;;4.17;;
68216;SDS011;55037;52.354;4.992;2024-03-22T05:44:48;8.80;;;4.20;;
68216;SDS011;55037;52.354;4.992;2024-03-22T05:47:15;7.90;;;4.03;;
68216;SDS011;55037;52.354;4.992;2024-03-22T05:49:42;9.57;;;3.40;;
68216;SDS011;55037;52.354;4.992;2024-03-22T05:52:08;13.65;;;4.57;;
68216;SDS011;55037;52.354;4.992;2024-03-22T05:54:35;10.00;;;4.13;;
68216;SDS011;55037;52.354;4.992;2024-03-22T05:57:02;8.02;;;3.67;;
68216;SDS011;55037;52.354;4.992;2024-03-22T05:59:30;6.70;;;3.45;;
68216;SDS011;55037;52.354;4.992;2024-03-22T06:01:57;9.77;;;3.40;;
68216;SDS011;55037;52.354;4.992;2024-03-22T06:04:24;8.35;;;4.15;;
68216;SDS011;55037;52.354;4.992;2024-03-22T06:06:51;6.33;;;3.33;;
68216;SDS011;55037;52.354;4.992;2024-03-22T06:09:17;7.45;;;3.83;;
68216;SDS011;55037;52.354;4.992;2024-03-22T06:12:00;11.02;;;4.28;;
68216;SDS011;55037;52.354;4.992;2024-03-22T06:14:28;6.20;;;3.63;;
68216;SDS011;55037;52.354;4.992;2024-03-22T06:16:55;12.02;;;4.28;;
68216;SDS011;55037;52.354;4.992;2024-03-22T06:19:21;13.87;;;4.27;;
68216;SDS011;55037;52.354;4.992;2024-03-22T06:21:48;8.98;;;4.68;;
68216;SDS011;55037;52.354;4.992;2024-03-22T06:24:15;13.00;;;4.88;;
68216;SDS011;55037;52.354;4.992;2024-03-22T06:26:44;11.10;;;3.75;;
68216;SDS011;55037;52.354;4.992;2024-03-22T06:29:11;10.25;;;4.63;;
68216;SDS011;55037;52.354;4.992;2024-03-22T06:31:39;7.60;;;3.43;;
68216;SDS011;55037;52.354;4.992;2024-03-22T06:34:05;11.00;;;4.43;;
68216;SDS011;55037;52.354;4.992;2024-03-22T06:36:32;12.77;;;5.15;;
68216;SDS011;55037;52.354;4.992;2024-03-22T06:38:59;12.93;;;3.75;;
68216;SDS011;55037;52.354;4.992;2024-03-22T06:41:28;13.63;;;4.28;;
68216;SDS011;55037;52.354;4.992;2024-03-22T06:43:54;10.03;;;3.63;;
68216;SDS011;55037;52.354;4.992;2024-03-22T06:46:21;9.80;;;3.42;;
68216;SDS011;55037;52.354;4.992;2024-03-22T06:48:48;11.00;;;4.95;;
68216;SDS011;55037;52.354;4.992;2024-03-22T06:51:15;18.10;;;3.55;;
68216;SDS011;55037;52.354;4.992;2024-03-22T06:53:42;9.68;;;3.55;;
68216;SDS011;55037;52.354;4.992;2024-03-22T06:56:08;10.00;;;4.80;;
68216;SDS011;55037;52.354;4.992;2024-03-22T06:58:40;17.40;;;4.25;;
68216;SDS011;55037;52.354;4.992;2024-03-22T07:01:07;10.35;;;3.80;;
68216;SDS011;55037;52.354;4.992;2024-03-22T07:03:33;8.35;;;3.53;;
68216;SDS011;55037;52.354;4.992;2024-03-22T07:06:00;11.73;;;4.45;;
68216;SDS011;55037;52.354;4.992;2024-03-22T07:08:26;9.13;;;3.93;;
68216;SDS011;55037;52.354;4.992;2024-03-22T07:10:53;9.32;;;4.57;;
68216;SDS011;55037;52.354;4.992;2024-03-22T07:13:20;8.48;;;3.03;;
68216;SDS011;55037;52.354;4.992;2024-03-22T07:15:47;13.60;;;4.35;;
68216;SDS011;55037;52.354;4.992;2024-03-22T07:18:14;22.02;;;3.65;;
68216;SDS011;55037;52.354;4.992;2024-03-22T07:20:41;7.73;;;3.57;;
68216;SDS011;55037;52.354;4.992;2024-03-22T07:23:08;8.57;;;4.03;;
68216;SDS011;55037;52.354;4.992;2024-03-22T07:25:35;10.90;;;4.78;;
68216;SDS011;55037;52.354;4.992;2024-03-22T07:28:02;11.57;;;4.63;;
68216;SDS011;55037;52.354;4.992;2024-03-22T07:30:28;14.40;;;4.65;;
68216;SDS011;55037;52.354;4.992;2024-03-22T07:32:55;12.20;;;4.50;;
68216;SDS011;55037;52.354;4.992;2024-03-22T07:35:22;13.82;;;4.93;;
68216;SDS011;55037;52.354;4.992;2024-03-22T07:37:50;7.35;;;3.85;;
68216;SDS011;55037;52.354;4.992;2024-03-22T07:40:17;7.25;;;4.07;;
68216;SDS011;55037;52.354;4.992;2024-03-22T07:42:43;7.65;;;3.70;;
68216;SDS011;55037;52.354;4.992;2024-03-22T07:45:10;7.43;;;4.13;;
68216;SDS011;55037;52.354;4.992;2024-03-22T07:47:37;7.72;;;3.55;;
68216;SDS011;55037;52.354;4.992;2024-03-22T07:50:04;8.93;;;4.78;;
68216;SDS011;55037;52.354;4.992;2024-03-22T07:52:31;12.57;;;4.28;;
68216;SDS011;55037;52.354;4.992;2024-03-22T07:54:58;11.13;;;5.15;;
68216;SDS011;55037;52.354;4.992;2024-03-22T07:57:24;10.13;;;3.87;;
68216;SDS011;55037;52.354;4.992;2024-03-22T07:59:51;19.33;;;5.03;;
68216;SDS011;55037;52.354;4.992;2024-03-22T08:02:17;12.93;;;5.38;;
68216;SDS011;55037;52.354;4.992;2024-03-22T08:04:44;7.97;;;4.25;;
68216;SDS011;55037;52.354;4.992;2024-03-22T08:07:11;10.55;;;4.22;;
68216;SDS011;55037;52.354;4.992;2024-03-22T08:09:37;10.17;;;4.37;;
68216;SDS011;55037;52.354;4.992;2024-03-22T08:12:04;9.93;;;5.47;;
68216;SDS011;55037;52.354;4.992;2024-03-22T08:14:31;10.60;;;4.68;;
68216;SDS011;55037;52.354;4.992;2024-03-22T08:16:58;11.68;;;4.22;;
68216;SDS011;55037;52.354;4.992;2024-03-22T08:19:24;11.05;;;4.72;;
68216;SDS011;55037;52.354;4.992;2024-03-22T08:21:51;9.23;;;4.03;;
68216;SDS011;55037;52.354;4.992;2024-03-22T08:24:18;8.13;;;4.18;;
68216;SDS011;55037;52.354;4.992;2024-03-22T08:26:45;14.82;;;4.70;;
68216;SDS011;55037;52.354;4.992;2024-03-22T08:29:13;14.35;;;4.90;;
68216;SDS011;55037;52.354;4.992;2024-03-22T08:31:40;9.40;;;4.35;;
68216;SDS011;55037;52.354;4.992;2024-03-22T08:34:08;12.20;;;4.90;;
68216;SDS011;55037;52.354;4.992;2024-03-22T08:36:35;11.70;;;5.00;;
68216;SDS011;55037;52.354;4.992;2024-03-22T08:39:02;5.97;;;4.07;;
68216;SDS011;55037;52.354;4.992;2024-03-22T08:41:28;11.65;;;4.28;;
68216;SDS011;55037;52.354;4.992;2024-03-22T08:43:55;13.23;;;5.57;;
68216;SDS011;55037;52.354;4.992;2024-03-22T08:46:23;9.27;;;4.77;;
68216;SDS011;55037;52.354;4.992;2024-03-22T08:48:52;10.85;;;5.68;;
68216;SDS011;55037;52.354;4.992;2024-03-22T08:51:20;12.32;;;4.85;;
68216;SDS011;55037;52.354;4.992;2024-03-22T08:53:47;10.55;;;4.53;;
68216;SDS011;55037;52.354;4.992;2024-03-22T08:56:13;13.98;;;6.03;;
68216;SDS011;55037;52.354;4.992;2024-03-22T08:58:40;14.33;;;5.70;;
68216;SDS011;55037;52.354;4.992;2024-03-22T09:01:07;13.43;;;4.40;;
68216;SDS011;55037;52.354;4.992;2024-03-22T09:03:36;9.18;;;4.28;;
68216;SDS011;55037;52.354;4.992;2024-03-22T09:06:03;17.15;;;5.55;;
68216;SDS011;55037;52.354;4.992;2024-03-22T09:08:30;11.45;;;4.72;;
68216;SDS011;55037;52.354;4.992;2024-03-22T09:10:56;11.10;;;5.57;;
68216;SDS011;55037;52.354;4.992;2024-03-22T09:13:24;14.88;;;5.65;;
68216;SDS011;55037;52.354;4.992;2024-03-22T09:15:57;16.08;;;5.40;;
68216;SDS011;55037;52.354;4.992;2024-03-22T09:18:24;10.02;;;5.20;;
68216;SDS011;55037;52.354;4.992;2024-03-22T09:20:55;17.42;;;7.15;;
68216;SDS011;55037;52.354;4.992;2024-03-22T09:23:22;17.43;;;5.30;;
68216;SDS011;55037;52.354;4.992;2024-03-22T09:25:49;12.93;;;5.13;;
68216;SDS011;55037;52.354;4.992;2024-03-22T09:28:16;15.18;;;5.10;;
68216;SDS011;55037;52.354;4.992;2024-03-22T09:30:42;14.02;;;4.68;;
68216;SDS011;55037;52.354;4.992;2024-03-22T09:33:09;9.20;;;5.03;;
68216;SDS011;55037;52.354;4.992;2024-03-22T09:35:36;10.67;;;5.37;;
68216;SDS011;55037;52.354;4.992;2024-03-22T09:38:03;12.57;;;4.75;;
68216;SDS011;55037;52.354;4.992;2024-03-22T09:40:30;8.70;;;5.15;;
68216;SDS011;55037;52.354;4.992;2024-03-22T09:42:59;13.30;;;5.50;;
68216;SDS011;55037;52.354;4.992;2024-03-22T09:45:28;14.65;;;5.35;;
68216;SDS011;55037;52.354;4.992;2024-03-22T09:47:55;9.37;;;4.43;;
68216;SDS011;55037;52.354;4.992;2024-03-22T09:50:22;9.45;;;4.30;;
68216;SDS011;55037;52.354;4.992;2024-03-22T09:52:50;8.45;;;4.90;;
68216;SDS011;55037;52.354;4.992;2024-03-22T09:55:20;10.50;;;4.75;;
68216;SDS011;55037;52.354;4.992;2024-03-22T09:57:49;10.70;;;5.38;;
68216;SDS011;55037;52.354;4.992;2024-03-22T10:00:18;13.07;;;4.47;;
68216;SDS011;55037;52.354;4.992;2024-03-22T10:02:46;14.13;;;4.55;;
68216;SDS011;55037;52.354;4.992;2024-03-22T10:05:13;9.15;;;4.88;;
68216;SDS011;55037;52.354;4.992;2024-03-22T10:07:40;7.07;;;4.90;;
68216;SDS011;55037;52.354;4.992;2024-03-22T10:10:07;7.28;;;4.50;;
68216;SDS011;55037;52.354;4.992;2024-03-22T10:12:34;8.33;;;4.83;;
68216;SDS011;55037;52.354;4.992;2024-03-22T10:15:01;13.73;;;6.25;;
68216;SDS011;55037;52.354;4.992;2024-03-22T10:17:28;15.27;;;5.95;;
68216;SDS011;55037;52.354;4.992;2024-03-22T10:19:55;9.48;;;4.93;;
68216;SDS011;55037;52.354;4.992;2024-03-22T10:22:22;9.73;;;4.82;;
68216;SDS011;55037;52.354;4.992;2024-03-22T10:24:50;11.20;;;5.27;;
68216;SDS011;55037;52.354;4.992;2024-03-22T10:27:18;10.50;;;5.85;;
68216;SDS011;55037;52.354;4.992;2024-03-22T10:29:45;8.48;;;4.07;;
68216;SDS011;55037;52.354;4.992;2024-03-22T10:32:13;6.03;;;4.03;;
68216;SDS011;55037;52.354;4.992;2024-03-22T10:34:40;8.40;;;4.35;;
68216;SDS011;55037;52.354;4.992;2024-03-22T10:37:07;8.30;;;4.40;;
68216;SDS011;55037;52.354;4.992;2024-03-22T10:39:34;10.73;;;4.70;;
68216;SDS011;55037;52.354;4.992;2024-03-22T10:42:01;9.18;;;4.68;;
68216;SDS011;55037;52.354;4.992;2024-03-22T10:44:31;7.35;;;3.90;;
68216;SDS011;55037;52.354;4.992;2024-03-22T10:46:57;8.80;;;4.80;;
68216;SDS011;55037;52.354;4.992;2024-03-22T10:49:27;6.70;;;3.83;;
68216;SDS011;55037;52.354;4.992;2024-03-22T10:51:59;6.97;;;3.60;;
68216;SDS011;55037;52.354;4.992;2024-03-22T10:54:29;6.10;;;3.47;;
68216;SDS011;55037;52.354;4.992;2024-03-22T10:56:58;6.80;;;3.45;;
68216;SDS011;55037;52.354;4.992;2024-03-22T10:59:24;6.25;;;4.15;;
68216;SDS011;55037;52.354;4.992;2024-03-22T11:01:51;6.77;;;3.30;;
68216;SDS011;55037;52.354;4.992;2024-03-22T11:04:22;9.10;;;4.15;;
68216;SDS011;55037;52.354;4.992;2024-03-22T11:06:49;9.23;;;4.22;;
68216;SDS011;55037;52.354;4.992;2024-03-22T11:09:23;7.90;;;3.78;;
68216;SDS011;55037;52.354;4.992;2024-03-22T11:11:51;9.05;;;4.60;;
68216;SDS011;55037;52.354;4.992;2024-03-22T11:14:18;7.03;;;4.23;;
68216;SDS011;55037;52.354;4.992;2024-03-22T11:16:49;9.73;;;5.30;;
68216;SDS011;55037;52.354;4.992;2024-03-22T11:19:16;10.32;;;4.68;;
68216;SDS011;55037;52.354;4.992;2024-03-22T11:21:42;8.93;;;3.70;;
68216;SDS011;55037;52.354;4.992;2024-03-22T11:24:09;22.83;;;6.53;;
68216;SDS011;55037;52.354;4.992;2024-03-22T11:26:37;14.80;;;6.00;;
68216;SDS011;55037;52.354;4.992;2024-03-22T11:29:03;14.60;;;6.20;;
68216;SDS011;55037;52.354;4.992;2024-03-22T11:31:30;9.95;;;5.22;;
68216;SDS011;55037;52.354;4.992;2024-03-22T11:33:57;12.80;;;6.55;;
68216;SDS011;55037;52.354;4.992;2024-03-22T11:36:23;12.18;;;6.10;;
68216;SDS011;55037;52.354;4.992;2024-03-22T11:38:50;13.63;;;6.20;;
68216;SDS011;55037;52.354;4.992;2024-03-22T11:41:19;15.13;;;6.88;;
68216;SDS011;55037;52.354;4.992;2024-03-22T11:43:47;11.18;;;5.95;;
68216;SDS011;55037;52.354;4.992;2024-03-22T11:46:15;16.38;;;6.90;;
68216;SDS011;55037;52.354;4.992;2024-03-22T11:48:42;17.02;;;6.53;;
68216;SDS011;55037;52.354;4.992;2024-03-22T11:51:09;15.20;;;6.80;;
68216;SDS011;55037;52.354;4.992;2024-03-22T11:53:37;10.32;;;5.18;;
68216;SDS011;55037;52.354;4.992;2024-03-22T11:56:05;16.30;;;6.60;;
68216;SDS011;55037;52.354;4.992;2024-03-22T11:58:31;15.63;;;6.57;;
68216;SDS011;55037;52.354;4.992;2024-03-22T12:00:58;17.38;;;7.30;;
68216;SDS011;55037;52.354;4.992;2024-03-22T12:03:25;14.80;;;7.33;;
68216;SDS011;55037;52.354;4.992;2024-03-22T12:05:53;12.68;;;5.90;;
68216;SDS011;55037;52.354;4.992;2024-03-22T12:08:20;14.32;;;5.57;;
68216;SDS011;55037;52.354;4.992;2024-03-22T12:10:47;12.38;;;5.60;;
68216;SDS011;55037;52.354;4.992;2024-03-22T12:13:14;10.38;;;4.90;;
68216;SDS011;55037;52.354;4.992;2024-03-22T12:15:41;13.83;;;7.27;;
68216;SDS011;55037;52.354;4.992;2024-03-22T12:18:07;16.70;;;6.40;;
68216;SDS011;55037;52.354;4.992;2024-03-22T12:20:34;18.35;;;8.05;;
68216;SDS011;55037;52.354;4.992;2024-03-22T12:23:00;13.15;;;6.40;;
68216;SDS011;55037;52.354;4.992;2024-03-22T12:25:27;13.15;;;5.80;;
68216;SDS011;55037;52.354;4.992;2024-03-22T12:27:54;14.47;;;5.53;;
68216;SDS011;55037;52.354;4.992;2024-03-22T12:30:20;15.55;;;6.13;;
68216;SDS011;55037;52.354;4.992;2024-03-22T12:32:48;13.98;;;6.07;;
68216;SDS011;55037;52.354;4.992;2024-03-22T12:35:15;12.20;;;5.03;;
68216;SDS011;55037;52.354;4.992;2024-03-22T12:37:41;12.05;;;4.88;;
68216;SDS011;55037;52.354;4.992;2024-03-22T12:40:08;12.97;;;5.53;;
68216;SDS011;55037;52.354;4.992;2024-03-22T12:42:35;10.65;;;5.30;;
68216;SDS011;55037;52.354;4.992;2024-03-22T12:45:02;8.32;;;4.72;;
68216;SDS011;55037;52.354;4.992;2024-03-22T12:47:28;8.32;;;4.25;;
68216;SDS011;55037;52.354;4.992;2024-03-22T12:49:55;17.25;;;5.47;;
68216;SDS011;55037;52.354;4.992;2024-03-22T12:52:22;16.07;;;5.17;;
68216;SDS011;55037;52.354;4.992;2024-03-22T12:54:48;10.00;;;4.28;;
68216;SDS011;55037;52.354;4.992;2024-03-22T12:57:15;10.35;;;4.18;;
68216;SDS011;55037;52.354;4.992;2024-03-22T12:59:43;12.95;;;5.07;;
68216;SDS011;55037;52.354;4.992;2024-03-22T13:02:12;7.00;;;4.18;;
68216;SDS011;55037;52.354;4.992;2024-03-22T13:04:38;10.33;;;4.27;;
68216;SDS011;55037;52.354;4.992;2024-03-22T13:07:05;13.55;;;4.57;;
68216;SDS011;55037;52.354;4.992;2024-03-22T13:09:32;9.32;;;3.95;;
68216;SDS011;55037;52.354;4.992;2024-03-22T13:11:58;7.45;;;3.60;;
68216;SDS011;55037;52.354;4.992;2024-03-22T13:14:25;10.50;;;4.30;;
68216;SDS011;55037;52.354;4.992;2024-03-22T13:16:53;11.23;;;5.03;;
68216;SDS011;55037;52.354;4.992;2024-03-22T13:19:19;14.18;;;4.40;;
68216;SDS011;55037;52.354;4.992;2024-03-22T13:21:46;10.98;;;3.83;;
68216;SDS011;55037;52.354;4.992;2024-03-22T13:24:14;7.40;;;3.85;;
68216;SDS011;55037;52.354;4.992;2024-03-22T13:26:41;9.48;;;3.67;;
68216;SDS011;55037;52.354;4.992;2024-03-22T13:29:07;9.37;;;3.93;;
68216;SDS011;55037;52.354;4.992;2024-03-22T13:31:34;10.98;;;3.78;;
68216;SDS011;55037;52.354;4.992;2024-03-22T13:34:00;16.10;;;4.57;;
68216;SDS011;55037;52.354;4.992;2024-03-22T13:36:27;9.82;;;4.22;;
68216;SDS011;55037;52.354;4.992;2024-03-22T13:38:58;11.90;;;4.55;;
68216;SDS011;55037;52.354;4.992;2024-03-22T13:41:25;11.30;;;4.53;;
68216;SDS011;55037;52.354;4.992;2024-03-22T13:43:51;12.43;;;4.43;;
68216;SDS011;55037;52.354;4.992;2024-03-22T13:46:18;21.73;;;6.55;;
68216;SDS011;55037;52.354;4.992;2024-03-22T13:48:44;11.55;;;5.00;;
68216;SDS011;55037;52.354;4.992;2024-03-22T13:51:11;15.25;;;6.00;;
68216;SDS011;55037;52.354;4.992;2024-03-22T13:53:38;14.80;;;5.57;;
68216;SDS011;55037;52.354;4.992;2024-03-22T13:56:04;15.18;;;5.38;;
68216;SDS011;55037;52.354;4.992;2024-03-22T13:58:31;15.27;;;5.40;;
68216;SDS011;55037;52.354;4.992;2024-03-22T14:00:57;9.80;;;4.75;;
68216;SDS011;55037;52.354;4.992;2024-03-22T14:03:26;13.20;;;3.75;;
68216;SDS011;55037;52.354;4.992;2024-03-22T14:05:53;12.83;;;3.70;;
68216;SDS011;55037;52.354;4.992;2024-03-22T14:08:20;10.57;;;3.90;;
68216;SDS011;55037;52.354;4.992;2024-03-22T14:10:46;8.40;;;3.25;;
68216;SDS011;55037;52.354;4.992;2024-03-22T14:13:13;6.10;;;3.10;;
68216;SDS011;55037;52.354;4.992;2024-03-22T14:15:41;16.52;;;3.97;;
68216;SDS011;55037;52.354;4.992;2024-03-22T14:18:07;15.93;;;3.00;;
68216;SDS011;55037;52.354;4.992;2024-03-22T14:20:35;8.63;;;3.65;;
68216;SDS011;55037;52.354;4.992;2024-03-22T14:23:02;12.10;;;3.42;;
68216;SDS011;55037;52.354;4.992;2024-03-22T14:25:31;9.85;;;3.10;;
68216;SDS011;55037;52.354;4.992;2024-03-22T14:27:57;11.52;;;3.20;;
68216;SDS011;55037;52.354;4.992;2024-03-22T14:30:24;9.13;;;2.90;;
68216;SDS011;55037;52.354;4.992;2024-03-22T14:32:51;14.65;;;3.40;;
68216;SDS011;55037;52.354;4.992;2024-03-22T14:35:18;7.65;;;2.47;;